sensor_id;sensor_type;location;lat;lon;timestamp;P1;durP1;ratioP1;P2;durP2;ratioP2
3379;SDS011;1703;51.964;7.642;2022-11-18T00:01:57;4.47;;;3.80;;
3379;SDS011;1703;51.964;7.642;2022-11-18T00:04:24;5.30;;;4.70;;
3379;SDS011;1703;51.964;7.642;2022-11-18T00:06:50;14.47;;;4.23;;
3379;SDS011;1703;51.964;7.642;2022-11-18T00:09:17;8.20;;;5.17;;
3379;SDS011;1703;51.964;7.642;2022-11-18T00:11:44;6.97;;;4.13;;
3379;SDS011;1703;51.964;7.642;2022-11-18T00:14:30;6.40;;;4.17;;
3379;SDS011;1703;51.964;7.642;2022-11-18T00:16:58;5.27;;;4.33;;
3379;SDS011;1703;51.964;7.642;2022-11-18T00:19:27;6.40;;;4.40;;
3379;SDS011;1703;51.964;7.642;2022-11-18T00:21:55;5.27;;;4.47;;
3379;SDS011;1703;51.964;7.642;2022-11-18T00:24:22;6.77;;;4.43;;
3379;SDS011;1703;51.964;7.642;2022-11-18T00:26:49;8.23;;;5.10;;
3379;SDS011;1703;51.964;7.642;2022-11-18T00:29:17;13.07;;;4.87;;
3379;SDS011;1703;51.964;7.642;2022-11-18T00:31:45;9.40;;;4.10;;
3379;SDS011;1703;51.964;7.642;2022-11-18T00:34:12;5.40;;;4.63;;
3379;SDS011;1703;51.964;7.642;2022-11-18T00:36:41;11.43;;;4.30;;
3379;SDS011;1703;51.964;7.642;2022-11-18T00:39:09;7.40;;;3.40;;
3379;SDS011;1703;51.964;7.642;2022-11-18T00:41:36;4.50;;;3.90;;
3379;SDS011;1703;51.964;7.642;2022-11-18T00:44:20;7.47;;;4.37;;
3379;SDS011;1703;51.964;7.642;2022-11-18T00:46:49;11.43;;;4.20;;
3379;SDS011;1703;51.964;7.642;2022-11-18T00:49:16;8.47;;;4.03;;
3379;SDS011;1703;51.964;7.642;2022-11-18T00:51:42;5.73;;;3.20;;
3379;SDS011;1703;51.964;7.642;2022-11-18T00:54:09;4.90;;;3.63;;
3379;SDS011;1703;51.964;7.642;2022-11-18T00:56:36;5.83;;;4.00;;
3379;SDS011;1703;51.964;7.642;2022-11-18T00:59:03;4.97;;;3.10;;
3379;SDS011;1703;51.964;7.642;2022-11-18T01:01:32;6.20;;;3.70;;
3379;SDS011;1703;51.964;7.642;2022-11-18T01:04:01;8.30;;;4.40;;
3379;SDS011;1703;51.964;7.642;2022-11-18T01:06:28;8.20;;;4.00;;
3379;SDS011;1703;51.964;7.642;2022-11-18T01:08:55;6.80;;;4.73;;
3379;SDS011;1703;51.964;7.642;2022-11-18T01:11:22;5.70;;;3.20;;
3379;SDS011;1703;51.964;7.642;2022-11-18T01:14:06;4.83;;;4.33;;
3379;SDS011;1703;51.964;7.642;2022-11-18T01:16:33;4.70;;;4.20;;
3379;SDS011;1703;51.964;7.642;2022-11-18T01:19:01;6.07;;;4.00;;
3379;SDS011;1703;51.964;7.642;2022-11-18T01:21:28;5.67;;;3.63;;
3379;SDS011;1703;51.964;7.642;2022-11-18T01:23:55;8.40;;;2.97;;
3379;SDS011;1703;51.964;7.642;2022-11-18T01:26:21;7.63;;;4.27;;
3379;SDS011;1703;51.964;7.642;2022-11-18T01:28:48;12.50;;;3.83;;
3379;SDS011;1703;51.964;7.642;2022-11-18T01:31:16;9.30;;;3.37;;
3379;SDS011;1703;51.964;7.642;2022-11-18T01:33:44;10.87;;;3.80;;
3379;SDS011;1703;51.964;7.642;2022-11-18T01:36:17;9.83;;;3.70;;
3379;SDS011;1703;51.964;7.642;2022-11-18T01:38:45;4.10;;;3.70;;
3379;SDS011;1703;51.964;7.642;2022-11-18T01:41:12;6.27;;;3.40;;
3379;SDS011;1703;51.964;7.642;2022-11-18T01:43:50;9.60;;;3.50;;
3379;SDS011;1703;51.964;7.642;2022-11-18T01:46:19;7.00;;;3.70;;
3379;SDS011;1703;51.964;7.642;2022-11-18T01:48:49;9.67;;;4.00;;
3379;SDS011;1703;51.964;7.642;2022-11-18T01:51:21;4.07;;;3.10;;
3379;SDS011;1703;51.964;7.642;2022-11-18T01:53:52;9.50;;;4.07;;
3379;SDS011;1703;51.964;7.642;2022-11-18T01:56:26;7.33;;;3.70;;
3379;SDS011;1703;51.964;7.642;2022-11-18T01:58:58;4.47;;;3.80;;
3379;SDS011;1703;51.964;7.642;2022-11-18T02:01:27;5.30;;;3.70;;
3379;SDS011;1703;51.964;7.642;2022-11-18T02:03:54;5.97;;;4.23;;
3379;SDS011;1703;51.964;7.642;2022-11-18T02:06:22;6.07;;;3.70;;
3379;SDS011;1703;51.964;7.642;2022-11-18T02:08:50;6.90;;;4.33;;
3379;SDS011;1703;51.964;7.642;2022-11-18T02:11:17;10.50;;;3.93;;
3379;SDS011;1703;51.964;7.642;2022-11-18T02:14:02;4.63;;;3.33;;
3379;SDS011;1703;51.964;7.642;2022-11-18T02:16:33;9.47;;;3.33;;
3379;SDS011;1703;51.964;7.642;2022-11-18T02:19:09;6.77;;;3.27;;
3379;SDS011;1703;51.964;7.642;2022-11-18T02:21:55;4.20;;;3.60;;
3379;SDS011;1703;51.964;7.642;2022-11-18T02:24:35;5.90;;;3.13;;
3379;SDS011;1703;51.964;7.642;2022-11-18T02:27:15;6.70;;;3.33;;
3379;SDS011;1703;51.964;7.642;2022-11-18T02:30:05;3.50;;;3.20;;
3379;SDS011;1703;51.964;7.642;2022-11-18T02:32:36;6.60;;;4.20;;
3379;SDS011;1703;51.964;7.642;2022-11-18T02:35:08;3.97;;;2.97;;
3379;SDS011;1703;51.964;7.642;2022-11-18T02:37:40;5.07;;;4.57;;
3379;SDS011;1703;51.964;7.642;2022-11-18T02:40:14;5.90;;;3.90;;
3379;SDS011;1703;51.964;7.642;2022-11-18T02:42:45;3.73;;;3.40;;
3379;SDS011;1703;51.964;7.642;2022-11-18T02:45:17;12.23;;;4.10;;
3379;SDS011;1703;51.964;7.642;2022-11-18T02:47:46;6.63;;;4.07;;
3379;SDS011;1703;51.964;7.642;2022-11-18T02:50:16;4.80;;;4.33;;
3379;SDS011;1703;51.964;7.642;2022-11-18T02:52:46;4.67;;;4.10;;
3379;SDS011;1703;51.964;7.642;2022-11-18T02:55:18;11.10;;;3.80;;
3379;SDS011;1703;51.964;7.642;2022-11-18T02:57:46;8.07;;;4.17;;
3379;SDS011;1703;51.964;7.642;2022-11-18T03:00:14;8.73;;;4.20;;
3379;SDS011;1703;51.964;7.642;2022-11-18T03:02:44;5.97;;;4.33;;
3379;SDS011;1703;51.964;7.642;2022-11-18T03:05:15;7.17;;;4.80;;
3379;SDS011;1703;51.964;7.642;2022-11-18T03:07:49;4.87;;;3.87;;
3379;SDS011;1703;51.964;7.642;2022-11-18T03:10:20;4.10;;;3.70;;
3379;SDS011;1703;51.964;7.642;2022-11-18T03:12:51;6.53;;;4.10;;
3379;SDS011;1703;51.964;7.642;2022-11-18T03:15:25;5.10;;;3.90;;
3379;SDS011;1703;51.964;7.642;2022-11-18T03:18:05;7.60;;;4.53;;
3379;SDS011;1703;51.964;7.642;2022-11-18T03:20:42;3.70;;;3.40;;
3379;SDS011;1703;51.964;7.642;2022-11-18T03:23:17;4.53;;;3.73;;
3379;SDS011;1703;51.964;7.642;2022-11-18T03:25:50;8.93;;;4.13;;
3379;SDS011;1703;51.964;7.642;2022-11-18T03:28:22;4.47;;;4.07;;
3379;SDS011;1703;51.964;7.642;2022-11-18T03:30:54;4.90;;;3.90;;
3379;SDS011;1703;51.964;7.642;2022-11-18T03:33:27;5.10;;;4.50;;
3379;SDS011;1703;51.964;7.642;2022-11-18T03:35:59;4.93;;;4.13;;
3379;SDS011;1703;51.964;7.642;2022-11-18T03:38:29;8.90;;;4.63;;
3379;SDS011;1703;51.964;7.642;2022-11-18T03:41:00;6.13;;;5.40;;
3379;SDS011;1703;51.964;7.642;2022-11-18T03:43:33;6.30;;;4.67;;
3379;SDS011;1703;51.964;7.642;2022-11-18T03:46:04;7.20;;;4.97;;
3379;SDS011;1703;51.964;7.642;2022-11-18T03:48:36;8.80;;;5.40;;
3379;SDS011;1703;51.964;7.642;2022-11-18T03:51:07;7.07;;;6.10;;
3379;SDS011;1703;51.964;7.642;2022-11-18T03:53:37;7.53;;;5.63;;
3379;SDS011;1703;51.964;7.642;2022-11-18T03:56:08;15.93;;;5.73;;
3379;SDS011;1703;51.964;7.642;2022-11-18T03:58:39;6.67;;;5.73;;
3379;SDS011;1703;51.964;7.642;2022-11-18T04:01:10;6.20;;;5.60;;
3379;SDS011;1703;51.964;7.642;2022-11-18T04:03:40;5.33;;;4.70;;
3379;SDS011;1703;51.964;7.642;2022-11-18T04:06:08;6.30;;;5.80;;
3379;SDS011;1703;51.964;7.642;2022-11-18T04:08:44;9.80;;;5.90;;
3379;SDS011;1703;51.964;7.642;2022-11-18T04:11:15;11.30;;;5.83;;
3379;SDS011;1703;51.964;7.642;2022-11-18T04:14:01;6.37;;;5.70;;
3379;SDS011;1703;51.964;7.642;2022-11-18T04:16:30;6.53;;;6.03;;
3379;SDS011;1703;51.964;7.642;2022-11-18T04:19:04;9.40;;;6.43;;
3379;SDS011;1703;51.964;7.642;2022-11-18T04:21:31;5.90;;;5.40;;
3379;SDS011;1703;51.964;7.642;2022-11-18T04:23:58;8.87;;;5.60;;
3379;SDS011;1703;51.964;7.642;2022-11-18T04:26:25;8.27;;;6.13;;
3379;SDS011;1703;51.964;7.642;2022-11-18T04:28:51;5.57;;;5.07;;
3379;SDS011;1703;51.964;7.642;2022-11-18T04:31:18;11.63;;;6.93;;
3379;SDS011;1703;51.964;7.642;2022-11-18T04:33:45;6.40;;;5.30;;
3379;SDS011;1703;51.964;7.642;2022-11-18T04:36:13;8.63;;;5.20;;
3379;SDS011;1703;51.964;7.642;2022-11-18T04:38:40;8.63;;;6.03;;
3379;SDS011;1703;51.964;7.642;2022-11-18T04:41:07;15.97;;;4.80;;
3379;SDS011;1703;51.964;7.642;2022-11-18T04:43:33;8.70;;;5.97;;
3379;SDS011;1703;51.964;7.642;2022-11-18T04:46:00;7.23;;;6.03;;
3379;SDS011;1703;51.964;7.642;2022-11-18T04:48:27;10.57;;;5.03;;
3379;SDS011;1703;51.964;7.642;2022-11-18T04:50:55;9.73;;;6.27;;
3379;SDS011;1703;51.964;7.642;2022-11-18T04:53:23;9.00;;;5.77;;
3379;SDS011;1703;51.964;7.642;2022-11-18T04:55:50;7.60;;;6.77;;
3379;SDS011;1703;51.964;7.642;2022-11-18T04:58:17;13.00;;;6.80;;
3379;SDS011;1703;51.964;7.642;2022-11-18T05:00:43;7.53;;;6.53;;
3379;SDS011;1703;51.964;7.642;2022-11-18T05:03:10;8.67;;;6.10;;
3379;SDS011;1703;51.964;7.642;2022-11-18T05:05:37;8.23;;;6.37;;
3379;SDS011;1703;51.964;7.642;2022-11-18T05:08:04;8.70;;;7.57;;
3379;SDS011;1703;51.964;7.642;2022-11-18T05:10:32;10.23;;;8.20;;
3379;SDS011;1703;51.964;7.642;2022-11-18T05:12:59;15.83;;;7.53;;
3379;SDS011;1703;51.964;7.642;2022-11-18T05:15:25;8.17;;;7.37;;
3379;SDS011;1703;51.964;7.642;2022-11-18T05:17:52;9.00;;;6.30;;
3379;SDS011;1703;51.964;7.642;2022-11-18T05:20:18;6.87;;;6.27;;
3379;SDS011;1703;51.964;7.642;2022-11-18T05:22:45;12.70;;;8.10;;
3379;SDS011;1703;51.964;7.642;2022-11-18T05:25:12;8.53;;;7.33;;
3379;SDS011;1703;51.964;7.642;2022-11-18T05:27:40;9.17;;;7.10;;
3379;SDS011;1703;51.964;7.642;2022-11-18T05:30:07;9.40;;;6.63;;
3379;SDS011;1703;51.964;7.642;2022-11-18T05:32:35;9.40;;;7.57;;
3379;SDS011;1703;51.964;7.642;2022-11-18T05:35:02;10.70;;;6.37;;
3379;SDS011;1703;51.964;7.642;2022-11-18T05:37:30;10.43;;;7.23;;
3379;SDS011;1703;51.964;7.642;2022-11-18T05:39:57;13.63;;;7.53;;
3379;SDS011;1703;51.964;7.642;2022-11-18T05:42:24;9.20;;;7.27;;
3379;SDS011;1703;51.964;7.642;2022-11-18T05:45:10;8.70;;;6.90;;
3379;SDS011;1703;51.964;7.642;2022-11-18T05:47:37;9.80;;;8.33;;
3379;SDS011;1703;51.964;7.642;2022-11-18T05:50:17;7.93;;;6.97;;
3379;SDS011;1703;51.964;7.642;2022-11-18T05:52:44;8.20;;;7.40;;
3379;SDS011;1703;51.964;7.642;2022-11-18T05:55:11;9.87;;;7.30;;
3379;SDS011;1703;51.964;7.642;2022-11-18T05:57:40;9.60;;;7.40;;
3379;SDS011;1703;51.964;7.642;2022-11-18T06:00:07;9.37;;;6.93;;
3379;SDS011;1703;51.964;7.642;2022-11-18T06:02:37;12.73;;;7.70;;
3379;SDS011;1703;51.964;7.642;2022-11-18T06:05:07;9.10;;;7.53;;
3379;SDS011;1703;51.964;7.642;2022-11-18T06:07:36;14.77;;;8.47;;
3379;SDS011;1703;51.964;7.642;2022-11-18T06:10:06;10.50;;;7.80;;
3379;SDS011;1703;51.964;7.642;2022-11-18T06:12:38;17.90;;;8.20;;
3379;SDS011;1703;51.964;7.642;2022-11-18T06:15:10;16.43;;;9.00;;
3379;SDS011;1703;51.964;7.642;2022-11-18T06:17:43;9.67;;;8.50;;
3379;SDS011;1703;51.964;7.642;2022-11-18T06:20:15;12.67;;;8.10;;
3379;SDS011;1703;51.964;7.642;2022-11-18T06:22:43;9.70;;;7.90;;
3379;SDS011;1703;51.964;7.642;2022-11-18T06:25:10;11.47;;;7.97;;
3379;SDS011;1703;51.964;7.642;2022-11-18T06:27:37;12.60;;;8.00;;
3379;SDS011;1703;51.964;7.642;2022-11-18T06:30:05;9.60;;;8.17;;
3379;SDS011;1703;51.964;7.642;2022-11-18T06:32:33;11.03;;;7.63;;
3379;SDS011;1703;51.964;7.642;2022-11-18T06:35:00;10.93;;;7.80;;
3379;SDS011;1703;51.964;7.642;2022-11-18T06:37:27;11.70;;;7.30;;
3379;SDS011;1703;51.964;7.642;2022-11-18T06:39:54;10.40;;;8.50;;
3379;SDS011;1703;51.964;7.642;2022-11-18T06:42:20;10.40;;;7.43;;
3379;SDS011;1703;51.964;7.642;2022-11-18T06:45:07;12.17;;;7.47;;
3379;SDS011;1703;51.964;7.642;2022-11-18T06:47:36;10.10;;;7.60;;
3379;SDS011;1703;51.964;7.642;2022-11-18T06:50:04;11.03;;;8.40;;
3379;SDS011;1703;51.964;7.642;2022-11-18T06:52:31;13.20;;;7.87;;
3379;SDS011;1703;51.964;7.642;2022-11-18T06:54:58;14.23;;;8.93;;
3379;SDS011;1703;51.964;7.642;2022-11-18T06:57:25;18.00;;;10.20;;
3379;SDS011;1703;51.964;7.642;2022-11-18T06:59:52;14.05;;;9.60;;
3379;SDS011;1703;51.964;7.642;2022-11-18T07:02:19;13.13;;;9.73;;
3379;SDS011;1703;51.964;7.642;2022-11-18T07:04:47;18.83;;;10.27;;
3379;SDS011;1703;51.964;7.642;2022-11-18T07:07:13;16.30;;;11.70;;
3379;SDS011;1703;51.964;7.642;2022-11-18T07:09:40;15.40;;;9.47;;
3379;SDS011;1703;51.964;7.642;2022-11-18T07:12:07;12.03;;;10.30;;
3379;SDS011;1703;51.964;7.642;2022-11-18T07:14:34;13.33;;;9.93;;
3379;SDS011;1703;51.964;7.642;2022-11-18T07:17:01;21.90;;;14.60;;
3379;SDS011;1703;51.964;7.642;2022-11-18T07:19:27;26.13;;;13.10;;
3379;SDS011;1703;51.964;7.642;2022-11-18T07:21:56;15.33;;;10.93;;
3379;SDS011;1703;51.964;7.642;2022-11-18T07:24:23;15.17;;;10.67;;
3379;SDS011;1703;51.964;7.642;2022-11-18T07:26:51;23.20;;;11.17;;
3379;SDS011;1703;51.964;7.642;2022-11-18T07:29:18;17.13;;;10.10;;
3379;SDS011;1703;51.964;7.642;2022-11-18T07:31:47;14.60;;;10.70;;
3379;SDS011;1703;51.964;7.642;2022-11-18T07:34:41;19.67;;;10.73;;
3379;SDS011;1703;51.964;7.642;2022-11-18T07:37:10;13.53;;;9.77;;
3379;SDS011;1703;51.964;7.642;2022-11-18T07:39:37;16.20;;;11.53;;
3379;SDS011;1703;51.964;7.642;2022-11-18T07:42:04;17.93;;;11.40;;
3379;SDS011;1703;51.964;7.642;2022-11-18T07:44:30;17.53;;;11.57;;
3379;SDS011;1703;51.964;7.642;2022-11-18T07:46:57;14.50;;;10.67;;
3379;SDS011;1703;51.964;7.642;2022-11-18T07:49:24;21.60;;;12.03;;
3379;SDS011;1703;51.964;7.642;2022-11-18T07:51:51;17.73;;;12.07;;
3379;SDS011;1703;51.964;7.642;2022-11-18T07:54:19;20.63;;;10.47;;
3379;SDS011;1703;51.964;7.642;2022-11-18T07:56:46;16.03;;;10.47;;
3379;SDS011;1703;51.964;7.642;2022-11-18T07:59:13;17.77;;;10.47;;
3379;SDS011;1703;51.964;7.642;2022-11-18T08:01:40;15.70;;;11.70;;
3379;SDS011;1703;51.964;7.642;2022-11-18T08:04:07;22.17;;;11.37;;
3379;SDS011;1703;51.964;7.642;2022-11-18T08:06:36;19.57;;;12.60;;
3379;SDS011;1703;51.964;7.642;2022-11-18T08:09:04;19.37;;;13.77;;
3379;SDS011;1703;51.964;7.642;2022-11-18T08:11:33;18.03;;;12.17;;
3379;SDS011;1703;51.964;7.642;2022-11-18T08:13:59;17.10;;;11.10;;
3379;SDS011;1703;51.964;7.642;2022-11-18T08:16:26;19.67;;;11.97;;
3379;SDS011;1703;51.964;7.642;2022-11-18T08:18:53;13.83;;;10.20;;
3379;SDS011;1703;51.964;7.642;2022-11-18T08:21:21;16.53;;;11.27;;
3379;SDS011;1703;51.964;7.642;2022-11-18T08:23:48;18.77;;;13.00;;
3379;SDS011;1703;51.964;7.642;2022-11-18T08:26:16;16.83;;;11.77;;
3379;SDS011;1703;51.964;7.642;2022-11-18T08:28:44;23.70;;;11.77;;
3379;SDS011;1703;51.964;7.642;2022-11-18T08:31:12;16.00;;;11.37;;
3379;SDS011;1703;51.964;7.642;2022-11-18T08:33:43;17.47;;;11.00;;
3379;SDS011;1703;51.964;7.642;2022-11-18T08:36:11;18.13;;;12.67;;
3379;SDS011;1703;51.964;7.642;2022-11-18T08:38:40;20.57;;;13.70;;
3379;SDS011;1703;51.964;7.642;2022-11-18T08:41:09;25.23;;;16.10;;
3379;SDS011;1703;51.964;7.642;2022-11-18T08:43:40;15.00;;;11.60;;
3379;SDS011;1703;51.964;7.642;2022-11-18T08:46:09;17.43;;;12.70;;
3379;SDS011;1703;51.964;7.642;2022-11-18T08:48:36;17.80;;;12.13;;
3379;SDS011;1703;51.964;7.642;2022-11-18T08:51:03;18.63;;;12.13;;
3379;SDS011;1703;51.964;7.642;2022-11-18T08:53:30;16.60;;;12.33;;
3379;SDS011;1703;51.964;7.642;2022-11-18T08:55:57;22.30;;;11.93;;
3379;SDS011;1703;51.964;7.642;2022-11-18T08:58:25;19.20;;;12.03;;
3379;SDS011;1703;51.964;7.642;2022-11-18T09:00:52;19.13;;;12.00;;
3379;SDS011;1703;51.964;7.642;2022-11-18T09:03:20;14.07;;;11.07;;
3379;SDS011;1703;51.964;7.642;2022-11-18T09:05:48;14.70;;;12.10;;
3379;SDS011;1703;51.964;7.642;2022-11-18T09:08:15;18.17;;;11.67;;
3379;SDS011;1703;51.964;7.642;2022-11-18T09:10:42;14.83;;;10.67;;
3379;SDS011;1703;51.964;7.642;2022-11-18T09:13:09;19.30;;;12.87;;
3379;SDS011;1703;51.964;7.642;2022-11-18T09:15:35;16.37;;;10.03;;
3379;SDS011;1703;51.964;7.642;2022-11-18T09:18:02;20.87;;;13.50;;
3379;SDS011;1703;51.964;7.642;2022-11-18T09:20:31;18.40;;;12.87;;
3379;SDS011;1703;51.964;7.642;2022-11-18T09:22:57;20.20;;;12.03;;
3379;SDS011;1703;51.964;7.642;2022-11-18T09:25:24;16.83;;;11.57;;
3379;SDS011;1703;51.964;7.642;2022-11-18T09:27:51;16.67;;;11.23;;
3379;SDS011;1703;51.964;7.642;2022-11-18T09:30:19;18.53;;;11.80;;
3379;SDS011;1703;51.964;7.642;2022-11-18T09:32:46;14.73;;;10.47;;
3379;SDS011;1703;51.964;7.642;2022-11-18T09:35:14;17.27;;;11.70;;
3379;SDS011;1703;51.964;7.642;2022-11-18T09:37:42;17.10;;;11.50;;
3379;SDS011;1703;51.964;7.642;2022-11-18T09:40:12;14.87;;;10.77;;
3379;SDS011;1703;51.964;7.642;2022-11-18T09:42:44;15.13;;;11.97;;
3379;SDS011;1703;51.964;7.642;2022-11-18T09:45:20;15.80;;;11.73;;
3379;SDS011;1703;51.964;7.642;2022-11-18T09:47:50;17.67;;;12.20;;
3379;SDS011;1703;51.964;7.642;2022-11-18T09:50:17;18.40;;;12.10;;
3379;SDS011;1703;51.964;7.642;2022-11-18T09:52:49;16.10;;;12.03;;
3379;SDS011;1703;51.964;7.642;2022-11-18T09:55:23;17.00;;;10.90;;
3379;SDS011;1703;51.964;7.642;2022-11-18T09:57:50;17.30;;;11.03;;
3379;SDS011;1703;51.964;7.642;2022-11-18T10:00:20;20.00;;;12.37;;
3379;SDS011;1703;51.964;7.642;2022-11-18T10:02:51;18.23;;;11.80;;
3379;SDS011;1703;51.964;7.642;2022-11-18T10:05:24;19.90;;;12.60;;
3379;SDS011;1703;51.964;7.642;2022-11-18T10:08:01;18.23;;;12.57;;
3379;SDS011;1703;51.964;7.642;2022-11-18T10:10:37;22.40;;;12.13;;
3379;SDS011;1703;51.964;7.642;2022-11-18T10:13:12;22.90;;;13.20;;
3379;SDS011;1703;51.964;7.642;2022-11-18T10:15:52;18.03;;;12.17;;
3379;SDS011;1703;51.964;7.642;2022-11-18T10:18:26;19.80;;;11.77;;
3379;SDS011;1703;51.964;7.642;2022-11-18T10:20:59;18.97;;;11.73;;
3379;SDS011;1703;51.964;7.642;2022-11-18T10:23:37;14.00;;;9.50;;
3379;SDS011;1703;51.964;7.642;2022-11-18T10:26:11;14.63;;;10.80;;
3379;SDS011;1703;51.964;7.642;2022-11-18T10:28:38;17.90;;;13.17;;
3379;SDS011;1703;51.964;7.642;2022-11-18T10:31:05;19.93;;;12.10;;
3379;SDS011;1703;51.964;7.642;2022-11-18T10:33:33;17.97;;;12.07;;
3379;SDS011;1703;51.964;7.642;2022-11-18T10:36:11;23.30;;;14.10;;
3379;SDS011;1703;51.964;7.642;2022-11-18T10:38:56;19.83;;;13.80;;
3379;SDS011;1703;51.964;7.642;2022-11-18T10:41:35;21.63;;;13.77;;
3379;SDS011;1703;51.964;7.642;2022-11-18T10:44:04;20.47;;;13.97;;
3379;SDS011;1703;51.964;7.642;2022-11-18T10:46:50;25.30;;;13.50;;
3379;SDS011;1703;51.964;7.642;2022-11-18T10:49:17;21.53;;;13.97;;
3379;SDS011;1703;51.964;7.642;2022-11-18T10:51:45;31.17;;;19.50;;
3379;SDS011;1703;51.964;7.642;2022-11-18T10:54:15;32.40;;;20.30;;
3379;SDS011;1703;51.964;7.642;2022-11-18T10:56:43;34.20;;;18.47;;
3379;SDS011;1703;51.964;7.642;2022-11-18T10:59:16;22.20;;;15.70;;
3379;SDS011;1703;51.964;7.642;2022-11-18T11:02:00;22.97;;;16.23;;
3379;SDS011;1703;51.964;7.642;2022-11-18T11:04:34;22.10;;;16.00;;
3379;SDS011;1703;51.964;7.642;2022-11-18T11:07:13;33.07;;;18.20;;
3379;SDS011;1703;51.964;7.642;2022-11-18T11:09:43;29.33;;;16.47;;
3379;SDS011;1703;51.964;7.642;2022-11-18T11:12:12;22.10;;;14.60;;
3379;SDS011;1703;51.964;7.642;2022-11-18T11:14:42;29.50;;;17.33;;
3379;SDS011;1703;51.964;7.642;2022-11-18T11:17:17;33.00;;;17.47;;
3379;SDS011;1703;51.964;7.642;2022-11-18T11:19:49;25.30;;;15.40;;
3379;SDS011;1703;51.964;7.642;2022-11-18T11:22:19;26.30;;;17.20;;
3379;SDS011;1703;51.964;7.642;2022-11-18T11:24:47;26.47;;;14.90;;
3379;SDS011;1703;51.964;7.642;2022-11-18T11:30:09;22.27;;;14.80;;
3379;SDS011;1703;51.964;7.642;2022-11-18T11:35:37;32.87;;;18.77;;
3379;SDS011;1703;51.964;7.642;2022-11-18T11:38:13;23.83;;;16.17;;
3379;SDS011;1703;51.964;7.642;2022-11-18T11:40:51;37.33;;;17.97;;
3379;SDS011;1703;51.964;7.642;2022-11-18T11:43:28;24.33;;;15.03;;
3379;SDS011;1703;51.964;7.642;2022-11-18T11:46:10;24.70;;;15.37;;
3379;SDS011;1703;51.964;7.642;2022-11-18T11:48:55;22.93;;;15.50;;
3379;SDS011;1703;51.964;7.642;2022-11-18T11:51:26;27.43;;;15.37;;
3379;SDS011;1703;51.964;7.642;2022-11-18T11:54:08;21.80;;;14.37;;
3379;SDS011;1703;51.964;7.642;2022-11-18T11:56:57;28.70;;;16.93;;
3379;SDS011;1703;51.964;7.642;2022-11-18T11:59:27;20.57;;;13.80;;
3379;SDS011;1703;51.964;7.642;2022-11-18T12:01:58;15.00;;;10.70;;
3379;SDS011;1703;51.964;7.642;2022-11-18T12:04:44;16.30;;;12.27;;
3379;SDS011;1703;51.964;7.642;2022-11-18T12:07:15;19.57;;;10.80;;
3379;SDS011;1703;51.964;7.642;2022-11-18T12:09:55;17.97;;;10.53;;
3379;SDS011;1703;51.964;7.642;2022-11-18T12:12:43;14.83;;;10.03;;
3379;SDS011;1703;51.964;7.642;2022-11-18T12:15:18;15.47;;;10.47;;
3379;SDS011;1703;51.964;7.642;2022-11-18T12:17:57;14.67;;;10.63;;
3379;SDS011;1703;51.964;7.642;2022-11-18T12:20:37;20.40;;;11.40;;
3379;SDS011;1703;51.964;7.642;2022-11-18T12:23:13;17.03;;;10.23;;
3379;SDS011;1703;51.964;7.642;2022-11-18T12:25:43;12.63;;;8.80;;
3379;SDS011;1703;51.964;7.642;2022-11-18T12:28:22;13.50;;;9.07;;
3379;SDS011;1703;51.964;7.642;2022-11-18T12:33:52;12.97;;;9.27;;
3379;SDS011;1703;51.964;7.642;2022-11-18T12:36:23;13.43;;;8.23;;
3379;SDS011;1703;51.964;7.642;2022-11-18T12:38:51;17.33;;;9.27;;
3379;SDS011;1703;51.964;7.642;2022-11-18T12:44:41;14.03;;;7.77;;
3379;SDS011;1703;51.964;7.642;2022-11-18T12:47:10;14.87;;;9.97;;
3379;SDS011;1703;51.964;7.642;2022-11-18T12:52:46;10.77;;;8.67;;
3379;SDS011;1703;51.964;7.642;2022-11-18T12:55:19;14.00;;;9.00;;
3379;SDS011;1703;51.964;7.642;2022-11-18T12:57:49;9.23;;;7.70;;
3379;SDS011;1703;51.964;7.642;2022-11-18T13:00:33;10.10;;;6.83;;
3379;SDS011;1703;51.964;7.642;2022-11-18T13:03:29;9.57;;;7.30;;
3379;SDS011;1703;51.964;7.642;2022-11-18T13:05:57;14.43;;;7.90;;
3379;SDS011;1703;51.964;7.642;2022-11-18T13:08:38;10.13;;;8.13;;
3379;SDS011;1703;51.964;7.642;2022-11-18T13:11:09;9.60;;;7.70;;
3379;SDS011;1703;51.964;7.642;2022-11-18T13:13:58;9.40;;;7.67;;
3379;SDS011;1703;51.964;7.642;2022-11-18T13:16:43;15.90;;;11.03;;
3379;SDS011;1703;51.964;7.642;2022-11-18T13:19:28;24.83;;;10.93;;
3379;SDS011;1703;51.964;7.642;2022-11-18T13:21:56;10.80;;;8.13;;
3379;SDS011;1703;51.964;7.642;2022-11-18T13:24:42;14.63;;;10.00;;
3379;SDS011;1703;51.964;7.642;2022-11-18T13:27:12;11.37;;;8.70;;
3379;SDS011;1703;51.964;7.642;2022-11-18T13:29:49;10.87;;;8.07;;
3379;SDS011;1703;51.964;7.642;2022-11-18T13:32:22;8.77;;;7.33;;
3379;SDS011;1703;51.964;7.642;2022-11-18T13:34:53;12.10;;;7.87;;
3379;SDS011;1703;51.964;7.642;2022-11-18T13:37:22;9.67;;;7.33;;
3379;SDS011;1703;51.964;7.642;2022-11-18T13:39:50;8.50;;;7.57;;
3379;SDS011;1703;51.964;7.642;2022-11-18T13:42:19;11.97;;;8.80;;
3379;SDS011;1703;51.964;7.642;2022-11-18T13:44:50;11.70;;;7.47;;
3379;SDS011;1703;51.964;7.642;2022-11-18T13:47:24;10.77;;;6.90;;
3379;SDS011;1703;51.964;7.642;2022-11-18T13:49:57;9.57;;;6.80;;
3379;SDS011;1703;51.964;7.642;2022-11-18T13:52:29;17.77;;;10.53;;
3379;SDS011;1703;51.964;7.642;2022-11-18T13:54:59;15.60;;;10.63;;
3379;SDS011;1703;51.964;7.642;2022-11-18T13:57:28;11.30;;;8.20;;
3379;SDS011;1703;51.964;7.642;2022-11-18T13:59:55;11.00;;;9.20;;
3379;SDS011;1703;51.964;7.642;2022-11-18T14:02:30;12.00;;;8.10;;
3379;SDS011;1703;51.964;7.642;2022-11-18T14:04:58;12.17;;;9.27;;
3379;SDS011;1703;51.964;7.642;2022-11-18T14:07:27;10.90;;;8.23;;
3379;SDS011;1703;51.964;7.642;2022-11-18T14:09:56;11.83;;;7.33;;
3379;SDS011;1703;51.964;7.642;2022-11-18T14:12:26;9.17;;;8.20;;
3379;SDS011;1703;51.964;7.642;2022-11-18T14:17:53;10.50;;;7.83;;
3379;SDS011;1703;51.964;7.642;2022-11-18T14:20:23;8.80;;;7.90;;
3379;SDS011;1703;51.964;7.642;2022-11-18T14:22:52;8.80;;;7.00;;
3379;SDS011;1703;51.964;7.642;2022-11-18T14:25:21;7.90;;;6.70;;
3379;SDS011;1703;51.964;7.642;2022-11-18T14:27:52;9.37;;;7.30;;
3379;SDS011;1703;51.964;7.642;2022-11-18T14:30:30;12.67;;;9.30;;
3379;SDS011;1703;51.964;7.642;2022-11-18T14:35:50;7.30;;;6.17;;
3379;SDS011;1703;51.964;7.642;2022-11-18T14:38:20;11.37;;;7.37;;
3379;SDS011;1703;51.964;7.642;2022-11-18T14:40:53;11.87;;;7.07;;
3379;SDS011;1703;51.964;7.642;2022-11-18T14:43:21;8.87;;;6.60;;
3379;SDS011;1703;51.964;7.642;2022-11-18T14:45:48;7.60;;;6.50;;
3379;SDS011;1703;51.964;7.642;2022-11-18T14:48:16;10.43;;;7.43;;
3379;SDS011;1703;51.964;7.642;2022-11-18T14:50:46;7.90;;;6.83;;
3379;SDS011;1703;51.964;7.642;2022-11-18T14:53:14;9.23;;;6.90;;
3379;SDS011;1703;51.964;7.642;2022-11-18T14:55:47;10.30;;;7.50;;
3379;SDS011;1703;51.964;7.642;2022-11-18T14:58:16;11.10;;;8.30;;
3379;SDS011;1703;51.964;7.642;2022-11-18T15:00:43;11.00;;;7.83;;
3379;SDS011;1703;51.964;7.642;2022-11-18T15:03:11;12.37;;;7.77;;
3379;SDS011;1703;51.964;7.642;2022-11-18T15:05:38;8.27;;;7.40;;
3379;SDS011;1703;51.964;7.642;2022-11-18T15:08:05;6.87;;;6.17;;
3379;SDS011;1703;51.964;7.642;2022-11-18T15:10:34;7.80;;;6.00;;
3379;SDS011;1703;51.964;7.642;2022-11-18T15:13:01;10.80;;;7.17;;
3379;SDS011;1703;51.964;7.642;2022-11-18T15:15:28;9.70;;;8.70;;
3379;SDS011;1703;51.964;7.642;2022-11-18T15:17:54;8.53;;;6.63;;
3379;SDS011;1703;51.964;7.642;2022-11-18T15:20:21;9.53;;;7.57;;
3379;SDS011;1703;51.964;7.642;2022-11-18T15:22:48;7.40;;;6.70;;
3379;SDS011;1703;51.964;7.642;2022-11-18T15:25:15;8.80;;;6.90;;
3379;SDS011;1703;51.964;7.642;2022-11-18T15:27:43;9.93;;;7.03;;
3379;SDS011;1703;51.964;7.642;2022-11-18T15:30:10;7.07;;;6.13;;
3379;SDS011;1703;51.964;7.642;2022-11-18T15:32:39;13.50;;;8.50;;
3379;SDS011;1703;51.964;7.642;2022-11-18T15:35:07;9.97;;;8.00;;
3379;SDS011;1703;51.964;7.642;2022-11-18T15:37:36;12.17;;;8.53;;
3379;SDS011;1703;51.964;7.642;2022-11-18T15:40:03;11.43;;;8.63;;
3379;SDS011;1703;51.964;7.642;2022-11-18T15:42:31;10.17;;;6.93;;
3379;SDS011;1703;51.964;7.642;2022-11-18T15:44:59;12.07;;;8.03;;